Airport ICAO


09:39 UTC

0°C

Clear skies


An affordable passengers' Moving Map for your aircraft. Made for the iPad and the iPhone
More information here

LFAT Paris Plage


Le Tourquet FRANCE   VFR CAVOK


METAR LFAT 180930Z AUTO 14004KT CAVOK 00/M01 Q1019 NOSIG 0h09min

TAF LFAT 180800Z 1809/1818 VRB03KT CAVOK BECMG 1810/1813 16010KT 1h39min





NOTAMS

OPEN